createdAt,value
2017-12-01T00:01:15.790Z,14.70
2017-12-01T00:03:42.211Z,20.37
2017-12-01T00:06:09.368Z,14.07
2017-12-01T00:08:35.744Z,13.62
2017-12-01T00:11:02.182Z,17.02
2017-12-01T00:13:29.336Z,14.65
2017-12-01T00:15:55.976Z,12.60
2017-12-01T00:18:23.191Z,10.77
2017-12-01T00:20:49.580Z,12.93
2017-12-01T00:23:16.684Z,11.52
2017-12-01T00:25:43.852Z,9.05
2017-12-01T00:28:10.235Z,12.50
2017-12-01T00:30:36.635Z,20.20
2017-12-01T00:33:03.764Z,13.77
2017-12-01T00:35:30.953Z,12.50
2017-12-01T00:37:58.114Z,21.70
2017-12-01T00:40:25.296Z,13.30
2017-12-01T00:42:51.724Z,13.55
2017-12-01T00:45:18.888Z,11.40
2017-12-01T00:47:46.018Z,11.02
2017-12-01T00:50:12.464Z,11.05
2017-12-01T00:52:38.907Z,16.27
2017-12-01T00:55:05.320Z,15.40
2017-12-01T00:57:31.776Z,13.90
2017-12-01T00:59:58.180Z,10.48
2017-12-01T01:02:25.290Z,15.10
2017-12-01T01:04:51.724Z,15.30
2017-12-01T01:07:18.200Z,12.15
2017-12-01T01:09:44.666Z,14.80
2017-12-01T01:12:11.094Z,15.65
2017-12-01T01:14:37.504Z,17.95
2017-12-01T01:17:04.996Z,13.95
2017-12-01T01:19:31.444Z,14.95
2017-12-01T01:21:57.876Z,12.90
2017-12-01T01:24:24.268Z,12.77
2017-12-01T01:26:50.705Z,13.20
2017-12-01T01:29:17.896Z,13.40
2017-12-01T01:31:44.288Z,15.25
2017-12-01T01:34:11.520Z,10.98
2017-12-01T01:36:37.952Z,13.80
2017-12-01T01:39:04.368Z,16.67
2017-12-01T01:41:30.829Z,12.05
2017-12-01T01:43:57.333Z,14.35
2017-12-01T01:46:23.771Z,16.00
2017-12-01T01:48:50.968Z,14.57
2017-12-01T01:51:18.131Z,15.10
2017-12-01T01:53:45.330Z,13.52
2017-12-01T01:56:11.792Z,15.40
2017-12-01T01:58:38.197Z,19.15
2017-12-01T02:01:04.703Z,21.35
2017-12-01T02:03:31.889Z,15.60
2017-12-01T02:05:59.024Z,16.42
2017-12-01T02:08:25.483Z,13.93
2017-12-01T02:10:51.934Z,15.20
2017-12-01T02:13:19.068Z,16.02
2017-12-01T02:15:45.472Z,20.50
2017-12-01T02:18:11.913Z,13.23
2017-12-01T02:20:38.369Z,18.17
2017-12-01T02:23:04.751Z,17.17
2017-12-01T02:25:31.210Z,19.00
2017-12-01T02:27:58.366Z,18.62
2017-12-01T02:30:24.779Z,17.02
2017-12-01T02:32:51.243Z,19.58
2017-12-01T02:35:17.664Z,22.67
2017-12-01T02:37:45.120Z,19.85
2017-12-01T02:40:11.565Z,18.75
2017-12-01T02:42:38.012Z,25.02
2017-12-01T02:45:04.540Z,19.87
2017-12-01T02:47:30.944Z,18.17
2017-12-01T02:49:57.376Z,18.50
2017-12-01T02:52:23.804Z,20.80
2017-12-01T02:54:50.228Z,16.62
2017-12-01T02:57:16.654Z,22.15
2017-12-01T02:59:43.056Z,20.30
2017-12-01T03:02:09.800Z,19.35
2017-12-01T03:04:36.212Z,20.83
2017-12-01T03:07:02.636Z,20.17
2017-12-01T03:09:29.079Z,21.23
2017-12-01T03:11:56.248Z,20.67
2017-12-01T03:14:22.655Z,18.30
2017-12-01T03:16:49.877Z,19.42
2017-12-01T03:19:16.299Z,33.45
2017-12-01T03:21:42.708Z,29.83
2017-12-01T03:24:09.898Z,21.95
2017-12-01T03:26:37.064Z,18.48
2017-12-01T03:29:03.508Z,20.52
2017-12-01T03:31:29.899Z,18.75
2017-12-01T03:33:56.320Z,21.00
2017-12-01T03:36:22.772Z,22.33
2017-12-01T03:38:49.192Z,18.58
2017-12-01T03:41:16.388Z,21.87
2017-12-01T03:43:42.768Z,24.05
2017-12-01T03:46:09.952Z,21.58
2017-12-01T03:48:37.080Z,28.12
2017-12-01T03:51:03.528Z,24.17
2017-12-01T03:53:29.940Z,26.60
2017-12-01T03:55:56.351Z,24.00
2017-12-01T03:58:23.532Z,27.73
2017-12-01T04:00:49.992Z,26.10
2017-12-01T04:03:16.453Z,27.40
2017-12-01T04:05:42.816Z,22.45
2017-12-01T04:08:10.048Z,21.60
2017-12-01T04:10:36.453Z,28.25
2017-12-01T04:13:03.620Z,25.73
2017-12-01T04:15:30.060Z,25.95
2017-12-01T04:17:57.220Z,26.25
2017-12-01T04:20:24.392Z,21.73
2017-12-01T04:22:50.875Z,27.80
2017-12-01T04:25:17.281Z,25.62
2017-12-01T04:27:43.736Z,24.73
2017-12-01T04:30:10.196Z,22.52
2017-12-01T04:32:36.637Z,27.90
2017-12-01T04:35:03.056Z,33.60
2017-12-01T04:37:29.524Z,26.50
2017-12-01T04:39:55.949Z,25.95
2017-12-01T04:42:22.456Z,32.22
2017-12-01T04:44:49.012Z,24.80
2017-12-01T04:47:15.449Z,25.50
2017-12-01T04:49:41.897Z,27.83
2017-12-01T04:52:09.088Z,25.62
2017-12-01T04:54:36.250Z,25.65
2017-12-01T04:57:03.403Z,33.65
2017-12-01T04:59:29.920Z,27.90
2017-12-01T05:01:56.372Z,20.73
2017-12-01T05:04:22.751Z,28.80
2017-12-01T05:06:49.216Z,27.80
2017-12-01T05:09:15.640Z,25.83
2017-12-01T05:11:42.089Z,28.48
2017-12-01T05:14:08.548Z,27.10
2017-12-01T05:16:35.036Z,26.95
2017-12-01T05:19:01.428Z,24.42
2017-12-01T05:21:27.885Z,26.25
2017-12-01T05:23:54.319Z,31.25
2017-12-01T05:26:20.768Z,23.27
2017-12-01T05:28:47.235Z,27.23
2017-12-01T05:31:13.672Z,27.75
2017-12-01T05:33:40.120Z,28.25
2017-12-01T05:36:06.602Z,22.40
2017-12-01T05:38:32.990Z,23.27
2017-12-01T05:40:59.392Z,32.25
2017-12-01T05:43:26.582Z,30.95
2017-12-01T05:45:52.960Z,24.63
2017-12-01T05:48:19.361Z,26.87
2017-12-01T05:50:46.551Z,28.55
2017-12-01T05:53:12.968Z,26.10
2017-12-01T05:55:40.127Z,29.27
2017-12-01T05:58:06.612Z,31.50
2017-12-01T06:00:33.056Z,27.50
2017-12-01T06:02:59.615Z,28.15
2017-12-01T06:05:26.068Z,26.33
2017-12-01T06:07:52.488Z,27.35
2017-12-01T06:10:18.920Z,34.03
2017-12-01T06:12:45.368Z,29.87
2017-12-01T06:15:11.761Z,34.53
2017-12-01T06:17:38.181Z,31.42
2017-12-01T06:20:04.629Z,26.90
2017-12-01T06:22:31.056Z,25.88
2017-12-01T06:24:57.504Z,33.63
2017-12-01T06:27:23.972Z,26.33
2017-12-01T06:29:50.380Z,26.25
2017-12-01T06:32:17.552Z,26.33
2017-12-01T06:34:43.996Z,27.92
2017-12-01T06:37:10.448Z,26.95
2017-12-01T06:39:36.904Z,29.40
2017-12-01T06:42:03.349Z,25.20
2017-12-01T06:44:30.916Z,26.92
2017-12-01T06:46:57.332Z,28.77
2017-12-01T06:49:23.798Z,24.87
2017-12-01T06:51:50.240Z,29.33
2017-12-01T06:54:16.684Z,26.30
2017-12-01T06:56:43.144Z,29.50
2017-12-01T06:59:09.670Z,24.60
2017-12-01T07:01:36.823Z,26.37
2017-12-01T07:04:03.280Z,28.92
2017-12-01T07:06:29.700Z,23.02
2017-12-01T07:08:56.172Z,27.48
2017-12-01T07:11:22.598Z,31.40
2017-12-01T07:13:48.973Z,29.30
2017-12-01T07:16:15.376Z,28.90
2017-12-01T07:18:42.568Z,33.22
2017-12-01T07:21:08.964Z,28.08
2017-12-01T07:23:35.362Z,30.17
2017-12-01T07:26:14.088Z,30.88
2017-12-01T07:28:40.464Z,29.12
2017-12-01T07:31:06.880Z,31.00
2017-12-01T07:33:33.305Z,31.40
2017-12-01T07:35:59.689Z,31.00
2017-12-01T07:38:26.195Z,32.35
2017-12-01T07:40:53.352Z,28.25
2017-12-01T07:43:20.540Z,29.85
2017-12-01T07:45:46.984Z,28.48
2017-12-01T07:48:13.436Z,35.22
2017-12-01T07:50:39.807Z,33.80
2017-12-01T07:53:06.320Z,33.10
2017-12-01T07:55:32.797Z,34.08
2017-12-01T07:57:59.231Z,24.12
2017-12-01T08:00:25.751Z,28.85
2017-12-01T08:02:52.203Z,30.20
2017-12-01T08:05:18.625Z,22.98
2017-12-01T08:07:45.080Z,22.52
2017-12-01T08:10:12.248Z,25.42
2017-12-01T08:12:38.702Z,25.95
2017-12-01T08:15:05.201Z,20.77
2017-12-01T08:17:31.650Z,26.33
2017-12-01T08:19:58.088Z,24.02
2017-12-01T08:22:39.713Z,23.87
2017-12-01T08:25:18.393Z,23.10
2017-12-01T08:27:44.923Z,19.12
2017-12-01T08:30:11.385Z,22.83
2017-12-01T08:32:37.809Z,19.33
2017-12-01T08:35:04.268Z,24.10
2017-12-01T08:37:30.680Z,24.73
2017-12-01T08:39:57.808Z,20.98
2017-12-01T08:42:25.028Z,23.48
2017-12-01T08:44:51.460Z,18.80
2017-12-01T08:47:17.890Z,21.45
2017-12-01T08:49:44.344Z,19.87
2017-12-01T08:52:11.515Z,21.10
2017-12-01T08:54:37.916Z,23.40
2017-12-01T08:57:05.121Z,19.35
2017-12-01T08:59:31.513Z,22.37
2017-12-01T09:01:57.924Z,22.17
2017-12-01T09:04:24.323Z,20.83
2017-12-01T09:06:51.456Z,23.48
2017-12-01T09:09:17.848Z,24.95
2017-12-01T09:11:44.285Z,25.02
2017-12-01T09:14:10.749Z,22.80
2017-12-01T09:16:37.254Z,25.70
2017-12-01T09:19:04.440Z,19.27
2017-12-01T09:21:31.666Z,22.50
2017-12-01T09:23:58.193Z,22.92
2017-12-01T09:26:24.734Z,18.25
2017-12-01T09:28:51.837Z,20.10
2017-12-01T09:31:18.301Z,21.55
2017-12-01T09:33:44.820Z,21.45
2017-12-01T09:36:11.264Z,18.75
2017-12-01T09:38:37.735Z,14.18
2017-12-01T09:41:04.184Z,16.90
2017-12-01T09:43:31.303Z,16.20
2017-12-01T09:45:57.713Z,17.30
2017-12-01T09:48:24.185Z,15.95
2017-12-01T09:50:50.620Z,19.27
2017-12-01T09:53:17.044Z,18.55
2017-12-01T09:55:43.504Z,15.15
2017-12-01T09:58:09.911Z,12.85
2017-12-01T10:00:37.088Z,15.88
2017-12-01T10:03:03.553Z,13.60
2017-12-01T10:05:29.964Z,12.23
2017-12-01T10:07:57.108Z,13.48
2017-12-01T10:10:24.260Z,12.85
2017-12-01T10:12:50.656Z,13.98
2017-12-01T10:15:17.040Z,11.52
2017-12-01T10:17:43.455Z,13.27
2017-12-01T10:20:09.884Z,15.05
2017-12-01T10:22:36.309Z,17.60
2017-12-01T10:25:02.728Z,10.40
2017-12-01T10:27:29.164Z,12.40
2017-12-01T10:29:55.624Z,14.98
2017-12-01T10:32:22.057Z,9.90
2017-12-01T10:34:48.464Z,10.48
2017-12-01T10:37:14.843Z,8.88
2017-12-01T10:39:41.304Z,12.50
2017-12-01T10:42:07.735Z,10.60
2017-12-01T10:44:34.164Z,8.23
2017-12-01T10:47:00.576Z,9.40
2017-12-01T10:49:26.956Z,12.00
2017-12-01T10:51:53.328Z,9.48
2017-12-01T10:54:19.752Z,8.88
2017-12-01T10:56:46.164Z,11.38
2017-12-01T10:59:12.569Z,9.40
2017-12-01T11:01:38.969Z,13.35
2017-12-01T11:04:05.437Z,11.88
2017-12-01T11:06:31.804Z,15.55
2017-12-01T11:08:58.224Z,12.57
2017-12-01T11:11:24.620Z,12.45
2017-12-01T11:13:50.996Z,11.00
2017-12-01T11:16:18.180Z,15.00
2017-12-01T11:18:44.592Z,14.50
2017-12-01T11:21:10.989Z,14.23
2017-12-01T11:23:37.417Z,13.75
2017-12-01T11:26:04.559Z,15.95
2017-12-01T11:28:30.972Z,12.50
2017-12-01T11:30:58.116Z,14.20
2017-12-01T11:33:24.513Z,9.65
2017-12-01T11:35:50.920Z,13.05
2017-12-01T11:38:17.372Z,10.93
2017-12-01T11:40:43.736Z,12.05
2017-12-01T11:43:10.124Z,12.25
2017-12-01T11:45:36.616Z,11.50
2017-12-01T11:48:03.144Z,14.23
2017-12-01T11:50:29.523Z,13.95
2017-12-01T11:52:55.976Z,14.43
2017-12-01T11:55:23.168Z,15.13
2017-12-01T11:57:50.330Z,17.87
2017-12-01T12:00:16.840Z,19.40
2017-12-01T12:02:43.240Z,15.13
2017-12-01T12:05:09.680Z,18.08
2017-12-01T12:07:36.140Z,19.85
2017-12-01T12:10:02.572Z,20.05
2017-12-01T12:12:28.973Z,19.80
2017-12-01T12:14:56.184Z,23.33
2017-12-01T12:17:22.580Z,22.60
2017-12-01T12:19:48.992Z,17.20
2017-12-01T12:22:15.512Z,20.23
2017-12-01T12:24:41.946Z,14.60
2017-12-01T12:27:08.392Z,18.90
2017-12-01T12:29:34.879Z,16.25
2017-12-01T12:32:01.298Z,16.70
2017-12-01T12:34:27.719Z,15.77
2017-12-01T12:36:54.165Z,15.65
2017-12-01T12:39:21.388Z,20.55
2017-12-01T12:41:47.856Z,11.65
2017-12-01T12:44:15.100Z,12.30
2017-12-01T12:46:41.532Z,11.20
2017-12-01T12:49:07.976Z,11.52
2017-12-01T12:51:34.488Z,10.50
2017-12-01T12:54:01.742Z,8.00
2017-12-01T12:56:28.181Z,11.50
2017-12-01T12:58:54.672Z,13.62
2017-12-01T13:01:21.205Z,16.20
2017-12-01T13:03:47.652Z,17.12
2017-12-01T13:06:14.108Z,14.63
2017-12-01T13:08:40.600Z,13.80
2017-12-01T13:11:07.852Z,12.45
2017-12-01T13:13:35.045Z,13.88
2017-12-01T13:16:01.492Z,16.52
2017-12-01T13:18:28.664Z,11.60
2017-12-01T13:20:55.164Z,12.40
2017-12-01T13:23:21.584Z,15.38
2017-12-01T13:25:47.996Z,16.90
2017-12-01T13:28:16.116Z,17.55
2017-12-01T13:30:42.536Z,15.57
2017-12-01T13:33:08.932Z,10.40
2017-12-01T13:35:36.111Z,10.70
2017-12-01T13:38:03.276Z,15.57
2017-12-01T13:40:30.396Z,20.73
2017-12-01T13:42:57.564Z,15.68
2017-12-01T13:45:24.009Z,12.80
2017-12-01T13:47:50.486Z,12.15
2017-12-01T13:50:16.939Z,14.95
2017-12-01T13:52:44.168Z,13.02
2017-12-01T13:55:10.624Z,10.93
2017-12-01T13:57:38.891Z,8.88
2017-12-01T14:00:05.324Z,14.50
2017-12-01T14:02:31.744Z,10.82
2017-12-01T14:04:58.176Z,11.57
2017-12-01T14:07:24.580Z,8.88
2017-12-01T14:09:50.960Z,11.70
2017-12-01T14:12:17.344Z,11.95
2017-12-01T14:14:43.754Z,12.15
2017-12-01T14:17:10.167Z,12.15
2017-12-01T14:19:37.318Z,13.85
2017-12-01T14:22:03.700Z,12.35
2017-12-01T14:24:30.065Z,11.10
2017-12-01T14:26:56.513Z,12.35
2017-12-01T14:29:22.897Z,12.18
2017-12-01T14:31:49.303Z,14.50
2017-12-01T14:34:16.464Z,11.93
2017-12-01T14:36:42.875Z,15.68
2017-12-01T14:39:10.097Z,10.60
2017-12-01T14:41:36.620Z,11.95
2017-12-01T14:44:03.008Z,12.48
2017-12-01T14:46:29.451Z,11.98
2017-12-01T14:48:56.610Z,12.60
2017-12-01T14:51:24.075Z,12.13
2017-12-01T14:53:50.484Z,10.63
2017-12-01T14:56:16.893Z,9.60
2017-12-01T14:58:44.056Z,10.77
2017-12-01T15:01:10.456Z,9.25
2017-12-01T15:03:37.273Z,7.68
2017-12-01T15:06:03.681Z,9.52
2017-12-01T15:08:30.080Z,13.38
2017-12-01T15:10:56.496Z,13.57
2017-12-01T15:13:22.864Z,18.30
2017-12-01T15:15:49.302Z,10.05
2017-12-01T15:18:16.876Z,9.40
2017-12-01T15:20:43.316Z,8.70
2017-12-01T15:23:09.700Z,9.57
2017-12-01T15:25:36.138Z,9.20
2017-12-01T15:28:02.552Z,11.20
2017-12-01T15:30:28.920Z,10.75
2017-12-01T15:32:55.348Z,7.80
2017-12-01T15:35:21.773Z,11.27
2017-12-01T15:37:48.156Z,16.92
2017-12-01T15:40:15.360Z,8.38
2017-12-01T15:42:42.556Z,11.12
2017-12-01T15:45:09.065Z,9.38
2017-12-01T15:47:35.510Z,8.80
2017-12-01T15:50:02.675Z,9.80
2017-12-01T15:52:29.068Z,9.20
2017-12-01T15:54:55.487Z,8.50
2017-12-01T15:57:21.880Z,7.00
2017-12-01T15:59:48.299Z,7.53
2017-12-01T16:02:14.816Z,10.18
2017-12-01T16:04:41.256Z,10.05
2017-12-01T16:07:07.716Z,8.50
2017-12-01T16:09:34.175Z,8.93
2017-12-01T16:12:00.651Z,7.20
2017-12-01T16:14:27.103Z,8.07
2017-12-01T16:16:54.268Z,8.95
2017-12-01T16:19:20.736Z,12.95
2017-12-01T16:21:47.864Z,8.05
2017-12-01T16:24:14.328Z,14.07
2017-12-01T16:26:40.725Z,10.40
2017-12-01T16:29:07.135Z,9.40
2017-12-01T16:31:33.573Z,8.48
2017-12-01T16:34:00.752Z,9.57
2017-12-01T16:36:27.860Z,8.10
2017-12-01T16:38:55.092Z,13.25
2017-12-01T16:41:21.540Z,11.05
2017-12-01T16:43:47.960Z,10.30
2017-12-01T16:46:14.370Z,10.82
2017-12-01T16:48:40.759Z,12.60
2017-12-01T16:51:07.217Z,13.60
2017-12-01T16:53:33.676Z,7.55
2017-12-01T16:56:00.156Z,8.30
2017-12-01T16:58:26.572Z,9.50
2017-12-01T17:00:53.064Z,10.85
2017-12-01T17:03:20.228Z,10.80
2017-12-01T17:05:46.656Z,13.18
2017-12-01T17:08:13.120Z,11.38
2017-12-01T17:10:40.240Z,10.07
2017-12-01T17:13:06.660Z,12.15
2017-12-01T17:15:33.091Z,14.73
2017-12-01T17:17:59.507Z,12.40
2017-12-01T17:20:26.712Z,16.83
2017-12-01T17:22:53.154Z,14.85
2017-12-01T17:25:19.628Z,11.60
2017-12-01T17:27:46.052Z,10.48
2017-12-01T17:30:12.524Z,13.00
2017-12-01T17:32:39.684Z,13.93
2017-12-01T17:35:06.105Z,11.10
2017-12-01T17:37:32.603Z,12.85
2017-12-01T17:39:59.747Z,12.45
2017-12-01T17:42:26.160Z,9.13
2017-12-01T17:44:52.584Z,12.23
2017-12-01T17:47:19.030Z,14.57
2017-12-01T17:49:45.452Z,14.05
2017-12-01T17:52:11.901Z,11.95
2017-12-01T17:54:38.370Z,12.07
2017-12-01T17:57:04.791Z,7.32
2017-12-01T17:59:31.230Z,9.77
2017-12-01T18:01:57.668Z,9.70
2017-12-01T18:04:24.836Z,11.27
2017-12-01T18:06:51.299Z,8.40
2017-12-01T18:09:17.700Z,7.60
2017-12-01T18:11:44.132Z,9.05
2017-12-01T18:14:10.580Z,10.55
2017-12-01T18:16:37.030Z,10.55
2017-12-01T18:19:03.475Z,9.43
2017-12-01T18:21:30.637Z,7.68
2017-12-01T18:23:57.081Z,7.87
2017-12-01T18:26:24.269Z,11.45
2017-12-01T18:28:50.684Z,10.93
2017-12-01T18:31:17.100Z,9.70
2017-12-01T18:33:43.844Z,12.90
2017-12-01T18:36:10.328Z,12.00
2017-12-01T18:38:36.743Z,9.75
2017-12-01T18:41:03.200Z,9.82
2017-12-01T18:43:29.668Z,10.80
2017-12-01T18:45:56.080Z,9.88
2017-12-01T18:48:22.479Z,10.25
2017-12-01T18:50:48.919Z,14.02
2017-12-01T18:53:16.132Z,13.27
2017-12-01T18:55:42.648Z,9.27
2017-12-01T18:58:11.896Z,14.35
2017-12-01T19:00:38.295Z,11.25
2017-12-01T19:03:04.757Z,10.43
2017-12-01T19:05:31.208Z,11.30
2017-12-01T19:07:57.649Z,17.33
2017-12-01T19:10:24.084Z,11.57
2017-12-01T19:12:50.520Z,13.02
2017-12-01T19:15:17.654Z,13.45
2017-12-01T19:17:44.140Z,12.00
2017-12-01T19:20:10.612Z,11.80
2017-12-01T19:22:37.068Z,18.02
2017-12-01T19:25:03.532Z,12.13
2017-12-01T19:27:30.035Z,13.73
2017-12-01T19:29:56.506Z,17.35
2017-12-01T19:32:23.000Z,12.23
2017-12-01T19:34:49.649Z,15.18
2017-12-01T19:37:16.112Z,13.88
2017-12-01T19:39:42.604Z,12.98
2017-12-01T19:42:08.992Z,16.10
2017-12-01T19:44:36.120Z,13.75
2017-12-01T19:47:03.324Z,16.08
2017-12-01T19:49:29.753Z,13.48
2017-12-01T19:51:56.945Z,17.65
2017-12-01T19:54:23.390Z,13.85
2017-12-01T19:56:50.871Z,14.85
2017-12-01T19:59:18.048Z,15.38
2017-12-01T20:01:44.636Z,13.95
2017-12-01T20:04:11.793Z,13.35
2017-12-01T20:06:38.230Z,13.05
2017-12-01T20:09:05.427Z,15.65
2017-12-01T20:11:31.849Z,15.50
2017-12-01T20:13:58.975Z,16.52
2017-12-01T20:16:33.208Z,18.00
2017-12-01T20:18:59.666Z,17.77
2017-12-01T20:21:26.888Z,16.65
2017-12-01T20:23:53.368Z,13.25
2017-12-01T20:26:19.812Z,14.25
2017-12-01T20:28:47.024Z,13.35
2017-12-01T20:31:13.478Z,17.48
2017-12-01T20:33:39.934Z,18.37
2017-12-01T20:36:06.372Z,15.80
2017-12-01T20:38:32.812Z,17.42
2017-12-01T20:40:59.276Z,15.95
2017-12-01T20:43:25.784Z,15.40
2017-12-01T20:45:52.252Z,13.95
2017-12-01T20:48:18.667Z,14.30
2017-12-01T20:50:45.136Z,20.02
2017-12-01T20:53:11.568Z,15.95
2017-12-01T20:55:38.744Z,16.37
2017-12-01T20:58:05.188Z,17.55
2017-12-01T21:00:31.702Z,15.27
2017-12-01T21:02:59.216Z,16.02
2017-12-01T21:05:25.700Z,15.57
2017-12-01T21:07:52.616Z,19.52
2017-12-01T21:10:19.104Z,16.70
2017-12-01T21:12:45.582Z,17.12
2017-12-01T21:15:11.992Z,17.17
2017-12-01T21:17:39.204Z,12.63
2017-12-01T21:20:05.656Z,15.40
2017-12-01T21:22:33.172Z,16.42
2017-12-01T21:24:59.588Z,15.43
2017-12-01T21:27:26.072Z,14.87
2017-12-01T21:29:53.204Z,13.98
2017-12-01T21:32:19.668Z,14.40
2017-12-01T21:34:46.092Z,17.17
2017-12-01T21:37:12.512Z,13.13
2017-12-01T21:39:38.999Z,15.10
2017-12-01T21:42:05.452Z,10.85
2017-12-01T21:44:34.890Z,18.00
2017-12-01T21:47:02.423Z,15.95
2017-12-01T21:49:28.944Z,13.70
2017-12-01T21:51:55.410Z,12.57
2017-12-01T21:54:21.793Z,18.42
2017-12-01T21:56:48.956Z,12.52
2017-12-01T21:59:16.097Z,13.93
2017-12-01T22:01:44.488Z,17.27
2017-12-01T22:04:11.683Z,17.48
2017-12-01T22:06:38.063Z,13.50
2017-12-01T22:09:04.524Z,13.70
2017-12-01T22:11:30.920Z,16.02
2017-12-01T22:13:57.374Z,20.30
2017-12-01T22:16:23.828Z,13.38
2017-12-01T22:18:50.268Z,14.80
2017-12-01T22:21:16.684Z,15.80
2017-12-01T22:23:43.152Z,24.02
2017-12-01T22:26:09.556Z,13.88
2017-12-01T22:28:36.048Z,16.17
2017-12-01T22:31:02.464Z,15.05
2017-12-01T22:33:29.596Z,18.98
2017-12-01T22:35:56.051Z,15.90
2017-12-01T22:38:23.268Z,14.23
2017-12-01T22:40:49.654Z,12.50
2017-12-01T22:43:16.086Z,14.35
2017-12-01T22:45:42.508Z,12.75
2017-12-01T22:48:08.940Z,14.63
2017-12-01T22:50:35.344Z,12.88
2017-12-01T22:53:01.814Z,18.73
2017-12-01T22:55:28.184Z,14.98
2017-12-01T22:57:54.593Z,14.20
2017-12-01T23:00:20.996Z,16.10
2017-12-01T23:02:47.388Z,14.30
2017-12-01T23:05:13.864Z,14.18
2017-12-01T23:07:40.332Z,16.73
2017-12-01T23:10:06.795Z,13.55
2017-12-01T23:12:33.204Z,10.23
2017-12-01T23:14:59.628Z,18.98
2017-12-01T23:17:26.104Z,17.12
2017-12-01T23:19:52.513Z,12.32
2017-12-01T23:22:18.935Z,13.62
2017-12-01T23:24:46.116Z,13.23
2017-12-01T23:27:12.508Z,17.12
2017-12-01T23:29:39.682Z,11.93
2017-12-01T23:32:06.079Z,12.10
2017-12-01T23:34:32.597Z,12.35
2017-12-01T23:36:58.992Z,17.35
2017-12-01T23:39:25.445Z,17.52
2017-12-01T23:41:51.878Z,15.07
2017-12-01T23:44:18.312Z,13.30
2017-12-01T23:46:44.749Z,14.07
2017-12-01T23:49:11.192Z,14.60
2017-12-01T23:51:37.628Z,10.68
2017-12-01T23:54:04.015Z,16.90
2017-12-01T23:56:30.447Z,15.95
2017-12-01T23:58:56.838Z,13.27
